CheckWX is a tool to help pilots better visualize weather data.  It is not intended as a substitute for an official pre-flight weather briefing.

09:27:04 UTC

LICT METAR
Vincenzo Florio Trapani-Birgi Airport
Trapani, Italy
Current

32 mins ago

LICT 170855Z 22014KT 9999 SCT020 15/13 Q1009 RMK BKN SCT080 BKN200 VIS MIN 9999 WIND THR13 21011KT BLU
Observed
Nov-17 @ 08:55 UTC
Wind
  • 220° at 14 KTS
Visibility
10,000+ meters
Flight Rules
VFR
Cloud Levels
  • Scattered at 2,000' AGL
Temperature
15°C / 59°F
Dewpoint
13°C / 55°F
Humidity
88%
Altimeter
29.79" Hg
Pressure
1008.92 hPa
Previous

2 hours ago

LICT 170755Z 23012KT 9999 SCT020 14/12 Q1008 RMK BKN SCT080 BKN200 VIS MIN 9999 WIND THR13 21011KT BLU
Observed
Nov-17 @ 07:55 UTC
Wind
  • 230° at 12 KTS
Visibility
10,000+ meters
Flight Rules
VFR
Cloud Levels
  • Scattered at 2,000' AGL
Temperature
14°C / 57°F
Dewpoint
12°C / 54°F
Humidity
88%
Altimeter
29.76" Hg
Pressure
1007.92 hPa
Previous

3 hours ago

LICT 170655Z 23014KT 9999 SCT020 14/12 Q1007
Observed
Nov-17 @ 06:55 UTC
Wind
  • 230° at 14 KTS
Visibility
10,000+ meters
Flight Rules
VFR
Cloud Levels
  • Scattered at 2,000' AGL
Temperature
14°C / 57°F
Dewpoint
12°C / 54°F
Humidity
88%
Altimeter
29.73" Hg
Pressure
1006.92 hPa